Terminal Aerodrome Forecast
Issued by NWS

Current Version | Previous Version | Text Only | Print | Product List | Glossary Off
Versions: 1 2 3 4 5 6 7 8 9 10 11 12 13 14 15

000
FTUS42 KMHX 052355
TAFOAJ
TAF
KOAJ 052355Z 0600/0624 03005KT P6SM SCT050 BKN100
     FM060600 03007KT 5SM -RA SCT015 OVC035
     FM060900 07009KT 3SM -RA BR BKN007 OVC015
      AMD LTD TO CLD VIS AND WIND=

USA.gov is the U.S. government's official web portal to all federal, state and local government web resources and services.